Kelvington, Canada
Current Conditions -  °F | °C
As of 4:00 PM on Wednesday 22 Oct 2014 (Local Time) from CYQV Reporting Station
Broken Clouds Broken Clouds  
Wind Chill: 55°   Ceiling: 8500
Heat Index: 55°   Visibility: 9mi
Dew Point: 46°   Wind: 13mph
Humidity: 72%   Direction: 280°W
Pressure: 29.66"   Gusts: NA
Location:  52.17°N, 103.52°W
Report Text: CYQV 222200Z AUTO 28011KT 9SM FEW020 SCT041 BKN085 13/08 A2966 RMK SLP056 DENSITY ALT 2000FT
Loading
Personal Weather Stations






























Interactive Weather Map
Tropical Storm Tracking
New forecast layout! Learn more

10-Day Weather Forecast

Advertisements
Track Severe Weather on mobile